Time;durP1;ratioP1;P1;durP2;ratioP2;P2;SDS_P1;SDS_P2;PMS_P1;PMS_P2;Temp;Humidity;BMP_temperature;BMP_pressure;BME280_temperature;BME280_humidity;BME280_pressure;Samples;Min_cycle;Max_cycle;Signal;HPM_P1;HPM_P2
2022/07/04 00:00:09;;;;;;;6.82;3.28;;;;;;;14.09;80.19;101922.38;5071382;28;20060;-66
2022/07/04 00:02:37;;;;;;;5.50;3.42;;;;;;;14.08;80.80;101936.00;5071380;28;20115;-66
2022/07/04 00:05:02;;;;;;;5.47;3.30;;;;;;;14.03;80.40;101936.56;5071413;28;20490;-66
2022/07/04 00:07:28;;;;;;;4.90;3.35;;;;;;;13.99;80.83;101936.13;5071175;28;20024;-66
2022/07/04 00:09:53;;;;;;;4.22;2.85;;;;;;;13.89;80.86;101918.72;5071283;28;20486;-66
2022/07/04 00:12:18;;;;;;;4.45;2.95;;;;;;;13.91;81.37;101936.28;5071257;28;20046;-66
2022/07/04 00:14:44;;;;;;;6.15;3.28;;;;;;;13.88;81.55;101923.22;5071071;28;20110;-66
2022/07/04 00:17:09;;;;;;;7.72;3.58;;;;;;;13.88;81.47;101927.75;5071030;28;20395;-66
2022/07/04 00:19:35;;;;;;;7.35;3.35;;;;;;;13.87;82.00;101926.94;5071168;28;20097;-66
2022/07/04 00:22:00;;;;;;;10.25;4.90;;;;;;;13.86;81.82;101927.13;5071101;28;20028;-66
2022/07/04 00:24:26;;;;;;;5.03;2.85;;;;;;;13.86;82.00;101927.13;5070074;28;20039;-66
2022/07/04 00:26:51;;;;;;;4.93;3.75;;;;;;;13.85;81.89;101925.47;5071311;28;20508;-66
2022/07/04 00:29:16;;;;;;;8.38;3.33;;;;;;;13.80;82.11;101916.13;5070794;28;20053;-66
2022/07/04 00:31:42;;;;;;;5.18;3.45;;;;;;;13.79;82.42;101919.84;5070660;28;20472;-66
2022/07/04 00:34:07;;;;;;;4.72;3.58;;;;;;;13.77;82.27;101921.06;5070718;28;20047;-66
2022/07/04 00:36:32;;;;;;;6.45;3.22;;;;;;;13.76;82.44;101927.47;5070748;28;20074;-66
2022/07/04 00:38:58;;;;;;;4.97;3.28;;;;;;;13.74;82.54;101914.22;5070788;28;20024;-66
2022/07/04 00:41:24;;;;;;;6.63;3.53;;;;;;;13.68;82.53;101916.88;5070685;28;20029;-66
2022/07/04 00:44:04;;;;;;;6.05;3.55;;;;;;;13.70;81.76;101918.34;5070551;28;20024;-66
2022/07/04 00:46:29;;;;;;;6.18;4.38;;;;;;;13.68;82.62;101916.88;5070602;28;20043;-66
2022/07/04 00:48:55;;;;;;;4.70;3.03;;;;;;;13.59;82.20;101919.63;5070546;28;20384;-66
2022/07/04 00:51:20;;;;;;;5.20;3.55;;;;;;;13.62;82.78;101918.44;5070266;28;20075;-66
2022/07/04 00:53:46;;;;;;;7.15;3.67;;;;;;;13.58;83.01;101915.31;5070266;28;20016;-66
2022/07/04 00:56:11;;;;;;;8.73;3.60;;;;;;;13.56;82.54;101919.22;5070530;28;20036;-66
2022/07/04 00:58:37;;;;;;;9.40;3.50;;;;;;;13.54;82.32;101922.06;5070239;28;20028;-66
2022/07/04 01:01:03;;;;;;;6.63;3.17;;;;;;;13.48;82.82;101909.44;5070301;28;20528;-66
2022/07/04 01:03:29;;;;;;;8.63;4.18;;;;;;;13.47;83.25;101925.72;5070179;28;20166;-66
2022/07/04 01:05:56;;;;;;;6.05;3.40;;;;;;;13.41;83.69;101919.25;5070208;28;20052;-66
2022/07/04 01:08:21;;;;;;;6.93;3.10;;;;;;;13.43;83.79;101922.56;5070250;28;20028;-69
2022/07/04 01:10:47;;;;;;;5.07;3.47;;;;;;;13.40;83.75;101920.28;5069958;28;20031;-70
2022/07/04 01:13:23;;;;;;;8.75;4.30;;;;;;;13.42;83.71;101912.88;5070179;28;20078;-70
2022/07/04 01:15:49;;;;;;;10.07;4.20;;;;;;;13.42;84.02;101912.06;5069886;28;20020;-70
2022/07/04 01:18:14;;;;;;;7.05;3.75;;;;;;;13.38;84.14;101907.03;5069982;28;20027;-70
2022/07/04 01:20:40;;;;;;;8.18;3.80;;;;;;;13.36;84.06;101908.25;5070024;28;20108;-70
2022/07/04 01:23:05;;;;;;;7.22;4.05;;;;;;;13.36;84.36;101913.63;5070868;28;20032;-70
2022/07/04 01:25:32;;;;;;;8.18;3.83;;;;;;;13.31;84.20;101906.16;5068630;28;20039;-70
2022/07/04 01:28:02;;;;;;;8.00;3.58;;;;;;;13.25;84.95;101892.66;5069740;28;20114;-70
2022/07/04 01:30:28;;;;;;;6.85;3.45;;;;;;;13.21;84.81;101905.59;5069639;28;20063;-69
2022/07/04 01:32:54;;;;;;;6.53;3.47;;;;;;;13.12;84.48;101891.47;5069556;28;20033;-69
2022/07/04 01:35:20;;;;;;;7.25;4.50;;;;;;;13.14;84.43;101889.44;5069503;28;20020;-70
2022/07/04 01:37:46;;;;;;;8.82;3.85;;;;;;;13.14;84.17;101888.59;5069556;28;20028;-70
2022/07/04 01:40:12;;;;;;;5.95;3.83;;;;;;;13.20;83.97;101895.06;5069370;28;20361;-70
2022/07/04 01:42:38;;;;;;;5.88;3.97;;;;;;;13.19;83.99;101894.22;5069474;28;20561;-69
2022/07/04 01:45:04;;;;;;;5.20;3.60;;;;;;;13.15;83.95;101892.94;5069480;28;20498;-69
2022/07/04 01:47:30;;;;;;;6.75;3.88;;;;;;;13.14;84.93;101888.59;5069526;28;20028;-70
2022/07/04 01:49:55;;;;;;;8.77;4.65;;;;;;;13.06;85.34;101886.88;5069489;28;20044;-70
2022/07/04 01:52:21;;;;;;;7.93;3.95;;;;;;;12.94;86.09;101885.69;5068934;28;20024;-70
2022/07/04 01:54:46;;;;;;;7.50;3.88;;;;;;;12.96;86.69;101880.97;5068151;28;20036;-70
2022/07/04 01:57:12;;;;;;;7.15;3.03;;;;;;;12.92;86.16;101882.38;5069311;28;20035;-70
2022/07/04 02:02:23;;;;;;;10.95;4.80;;;;;;;12.79;86.50;101883.03;5069316;28;20125;-70
2022/07/04 02:04:48;;;;;;;8.27;3.67;;;;;;;12.70;86.30;101870.75;5069329;28;20055;-70
2022/07/04 02:07:14;;;;;;;9.05;3.53;;;;;;;12.69;86.98;101880.63;5069251;28;20039;-70
2022/07/04 02:09:39;;;;;;;5.72;4.10;;;;;;;12.62;87.21;101877.03;5069256;28;20032;-69
2022/07/04 02:14:49;;;;;;;8.77;4.13;;;;;;;12.48;87.74;101878.69;5069411;28;20178;-69
2022/07/04 02:17:14;;;;;;;7.68;4.03;;;;;;;12.40;87.90;101873.44;5069280;28;20111;-69
2022/07/04 02:19:39;;;;;;;6.80;4.53;;;;;;;12.43;88.00;101877.59;5069035;28;20177;-69
2022/07/04 02:22:05;;;;;;;10.35;4.40;;;;;;;12.40;87.88;101878.78;5069204;28;20054;-69
2022/07/04 02:24:30;;;;;;;6.57;3.70;;;;;;;12.37;87.65;101881.84;5069073;28;20032;-70
2022/07/04 02:26:55;;;;;;;5.28;3.22;;;;;;;12.33;87.59;101875.16;5069168;28;20059;-69
2022/07/04 02:29:21;;;;;;;5.22;3.70;;;;;;;12.31;87.65;101881.72;5068995;28;20044;-69
2022/07/04 02:31:46;;;;;;;9.73;4.75;;;;;;;12.27;87.71;101875.91;5068887;28;20029;-69
2022/07/04 02:34:12;;;;;;;6.63;4.43;;;;;;;12.26;87.80;101871.56;5068945;28;20032;-69
2022/07/04 02:36:38;;;;;;;7.00;3.95;;;;;;;12.24;88.02;101885.13;5069071;28;20039;-70
2022/07/04 02:39:07;;;;;;;8.43;4.65;;;;;;;12.13;88.17;101874.03;5069048;28;20056;-69
2022/07/04 02:41:33;;;;;;;8.13;4.38;;;;;;;12.20;88.32;101883.00;5068948;28;20093;-69
2022/07/04 02:43:59;;;;;;;8.57;4.20;;;;;;;12.20;88.62;101881.16;5068882;28;20020;-69
2022/07/04 02:46:24;;;;;;;7.72;4.53;;;;;;;12.17;88.37;101876.16;5068960;28;20031;-70
2022/07/04 02:48:49;;;;;;;7.45;4.50;;;;;;;12.15;88.61;101886.22;5072370;28;20020;-70
2022/07/04 02:51:15;;;;;;;5.28;3.92;;;;;;;12.14;88.81;101878.38;5071256;28;20050;-69
2022/07/04 02:53:40;;;;;;;6.38;4.20;;;;;;;12.09;88.67;101889.63;5072690;28;20028;-69
2022/07/04 02:56:06;;;;;;;8.20;4.22;;;;;;;12.04;88.75;101883.97;5072831;28;20123;-70
2022/07/04 02:58:32;;;;;;;9.02;3.78;;;;;;;12.02;88.78;101884.16;5072668;28;20098;-69
2022/07/04 03:00:58;;;;;;;6.53;4.38;;;;;;;12.04;89.13;101894.69;5072692;28;20021;-70
2022/07/04 03:03:23;;;;;;;9.35;5.13;;;;;;;12.04;88.69;101892.00;5071258;28;20445;-70
2022/07/04 03:05:48;;;;;;;8.68;4.80;;;;;;;12.02;89.08;101888.66;5072577;28;20035;-70
2022/07/04 03:08:14;;;;;;;5.28;3.17;;;;;;;12.02;89.35;101892.16;5072410;28;20119;-69
2022/07/04 03:10:39;;;;;;;6.82;3.85;;;;;;;11.99;89.25;101891.72;5072356;28;20122;-69
2022/07/04 03:13:04;;;;;;;8.95;4.53;;;;;;;12.04;89.21;101903.53;5072313;28;20036;-69
2022/07/04 03:15:31;;;;;;;9.38;4.30;;;;;;;12.08;89.17;101901.34;5072361;28;20043;-69
2022/07/04 03:17:56;;;;;;;8.75;3.78;;;;;;;12.11;89.07;101903.66;5072161;28;20024;-69
2022/07/04 03:20:21;;;;;;;6.25;3.97;;;;;;;12.14;88.86;101911.31;5072173;28;20033;-69
2022/07/04 03:22:46;;;;;;;6.85;3.85;;;;;;;12.16;88.51;101916.47;5072049;28;20108;-69
2022/07/04 03:25:12;;;;;;;6.90;3.80;;;;;;;12.15;87.89;101917.47;5072010;28;20064;-69
2022/07/04 03:27:37;;;;;;;7.15;3.88;;;;;;;12.17;88.17;101912.78;5072085;28;20044;-69
2022/07/04 03:30:03;;;;;;;9.00;3.85;;;;;;;12.20;88.07;101920.44;5071801;28;20061;-70
2022/07/04 03:32:28;;;;;;;7.45;3.65;;;;;;;12.27;87.84;101919.53;5070282;28;20048;-70
2022/07/04 03:34:54;;;;;;;8.90;5.28;;;;;;;12.30;87.67;101912.16;5071952;28;20065;-70
2022/07/04 03:37:19;;;;;;;8.98;3.85;;;;;;;12.33;87.45;101914.47;5071958;28;20070;-70
2022/07/04 03:39:44;;;;;;;7.85;4.00;;;;;;;12.40;87.28;101912.75;5071779;28;20024;-66
2022/07/04 03:42:09;;;;;;;8.38;4.03;;;;;;;12.44;86.88;101911.34;5071756;28;20025;-66
2022/07/04 03:44:35;;;;;;;5.38;3.70;;;;;;;12.44;86.55;101914.03;5070369;28;20028;-66
2022/07/04 03:47:01;;;;;;;6.38;3.88;;;;;;;12.51;86.78;101923.00;5071603;28;20048;-66
2022/07/04 03:49:26;;;;;;;6.43;3.85;;;;;;;12.50;86.53;101919.50;5071873;28;20032;-66
2022/07/04 03:51:51;;;;;;;10.10;4.43;;;;;;;12.47;86.96;101924.34;5071636;28;20454;-66
2022/07/04 03:54:17;;;;;;;7.55;4.35;;;;;;;12.53;86.73;101936.19;5071627;28;20055;-66
2022/07/04 03:56:42;;;;;;;8.05;4.38;;;;;;;12.55;86.75;101942.16;5071435;28;20557;-66
2022/07/04 03:59:08;;;;;;;9.27;4.25;;;;;;;12.57;87.33;101948.19;5071406;28;20119;-66
2022/07/04 04:01:33;;;;;;;7.13;4.18;;;;;;;12.57;87.41;101946.31;5071514;28;20020;-66
2022/07/04 04:06:50;;;;;;;4.70;3.58;;;;;;;12.59;86.67;101952.34;5070369;28;20503;-66
2022/07/04 04:09:18;;;;;;;7.28;4.00;;;;;;;12.61;87.04;101963.69;5071355;28;20140;-66
2022/07/04 04:11:43;;;;;;;12.10;6.03;;;;;;;12.64;86.64;101959.81;5071179;28;20120;-66
2022/07/04 04:14:09;;;;;;;7.22;4.03;;;;;;;12.65;86.99;101965.00;5071310;28;20463;-66
2022/07/04 04:16:35;;;;;;;8.60;3.90;;;;;;;12.80;86.53;101966.84;5071228;28;20029;-66
2022/07/04 04:19:00;;;;;;;5.40;3.40;;;;;;;12.86;86.19;101958.06;5071226;28;20111;-66
2022/07/04 04:21:26;;;;;;;8.55;4.78;;;;;;;12.89;86.17;101952.34;5071064;28;20029;-66
2022/07/04 04:23:51;;;;;;;10.95;5.47;;;;;;;12.87;86.34;101949.88;5070997;28;20119;-66
2022/07/04 04:26:16;;;;;;;4.72;3.40;;;;;;;12.84;86.33;101955.59;5070938;28;20078;-66
2022/07/04 04:28:43;;;;;;;5.13;3.78;;;;;;;12.81;86.41;101953.28;5070883;28;20037;-66
2022/07/04 04:31:08;;;;;;;5.95;3.78;;;;;;;12.86;86.76;101966.97;5069490;28;20049;-66
2022/07/04 04:33:34;;;;;;;9.07;4.45;;;;;;;12.89;86.80;101965.72;5070975;28;20043;-66
2022/07/04 04:36:00;;;;;;;8.15;3.53;;;;;;;12.92;86.90;101962.72;5070934;28;20036;-66
2022/07/04 04:38:25;;;;;;;10.25;4.70;;;;;;;13.02;87.45;101970.44;5070698;28;20036;-66
2022/07/04 04:40:50;;;;;;;6.32;3.95;;;;;;;13.07;86.45;101973.41;5069455;28;20025;-66
2022/07/04 04:43:16;;;;;;;8.10;3.55;;;;;;;13.06;86.50;101980.59;5070704;28;20458;-66
2022/07/04 04:45:41;;;;;;;8.73;4.68;;;;;;;13.20;86.54;101973.56;5070590;28;20038;-66
2022/07/04 04:48:07;;;;;;;10.25;4.80;;;;;;;13.58;84.88;101973.47;5070751;28;20052;-66
2022/07/04 04:50:32;;;;;;;8.45;4.70;;;;;;;13.75;84.18;101974.03;5069158;28;21001;-66
2022/07/04 04:52:58;;;;;;;8.25;4.40;;;;;;;13.69;84.02;101966.78;5070478;28;20047;-66
2022/07/04 04:55:23;;;;;;;10.52;5.05;;;;;;;13.62;84.42;101974.72;5070419;28;20031;-66
2022/07/04 04:57:48;;;;;;;10.18;5.20;;;;;;;13.50;84.94;101965.53;5070451;28;20060;-66
2022/07/04 05:00:14;;;;;;;9.38;4.95;;;;;;;13.41;85.50;101956.75;5070196;28;20482;-65
2022/07/04 05:02:39;;;;;;;8.10;5.05;;;;;;;13.38;85.50;101957.13;5070347;28;20024;-66
2022/07/04 05:05:06;;;;;;;9.27;4.18;;;;;;;13.43;86.17;101953.91;5070309;28;20111;-66
2022/07/04 05:07:31;;;;;;;8.25;5.22;;;;;;;13.46;86.63;101950.84;5070225;28;20032;-66
2022/07/04 05:09:58;;;;;;;11.77;4.45;;;;;;;13.65;85.73;101949.38;5068143;28;20039;-66
2022/07/04 05:12:25;;;;;;;8.30;4.03;;;;;;;13.91;84.82;101940.78;5069901;28;20033;-66
2022/07/04 05:14:50;;;;;;;8.13;4.25;;;;;;;13.89;84.94;101945.53;5069950;28;20063;-66
2022/07/04 05:17:16;;;;;;;6.93;4.43;;;;;;;13.82;84.66;101945.47;5070035;28;20059;-66
2022/07/04 05:19:41;;;;;;;8.55;3.80;;;;;;;13.84;84.79;101951.47;5069964;28;20107;-66
2022/07/04 05:22:06;;;;;;;10.02;5.70;;;;;;;13.87;85.61;101959.13;5069944;28;20541;-66
2022/07/04 05:24:32;;;;;;;6.78;4.18;;;;;;;13.89;85.37;101957.09;5069845;28;20475;-66
2022/07/04 05:26:57;;;;;;;7.55;3.85;;;;;;;13.96;85.37;101955.31;5070229;28;20127;-66
2022/07/04 05:29:22;;;;;;;10.07;4.90;;;;;;;14.05;85.79;101950.63;5069516;28;20102;-66
2022/07/04 05:31:48;;;;;;;8.43;4.88;;;;;;;14.09;85.51;101959.13;5069755;28;20025;-66
2022/07/04 05:34:13;;;;;;;7.95;4.05;;;;;;;14.10;85.22;101950.06;5069744;28;20043;-66
2022/07/04 05:36:38;;;;;;;7.82;4.22;;;;;;;14.15;86.57;101947.63;5069955;28;20028;-66
2022/07/04 05:39:04;;;;;;;7.30;3.83;;;;;;;14.18;85.73;101957.97;5069820;28;20402;-65
2022/07/04 05:41:29;;;;;;;10.07;5.22;;;;;;;14.28;85.30;101958.47;5069542;28;20035;-66
2022/07/04 05:43:54;;;;;;;9.35;4.35;;;;;;;14.58;85.09;101971.72;5069584;28;20033;-66
2022/07/04 05:46:20;;;;;;;5.47;3.67;;;;;;;14.75;84.68;101965.03;5069317;28;20771;-66
2022/07/04 05:48:45;;;;;;;7.00;3.65;;;;;;;14.80;83.61;101970.66;5069620;28;20050;-66
2022/07/04 05:51:10;;;;;;;11.20;4.07;;;;;;;14.79;82.98;101973.53;5069409;28;20865;-66
2022/07/04 05:53:36;;;;;;;6.35;3.75;;;;;;;14.80;84.28;101964.44;5069453;28;20050;-66
2022/07/04 05:56:02;;;;;;;9.30;4.47;;;;;;;14.80;83.47;101970.66;5069427;28;20547;-66
2022/07/04 05:58:28;;;;;;;6.70;3.47;;;;;;;14.85;83.31;101965.50;5069482;28;20119;-66
2022/07/04 06:00:53;;;;;;;7.65;4.28;;;;;;;14.95;84.10;101970.50;5069288;28;20085;-66
2022/07/04 06:03:18;;;;;;;6.38;4.22;;;;;;;15.18;83.76;101969.41;5069444;28;20479;-66
2022/07/04 06:05:44;;;;;;;6.55;3.28;;;;;;;15.81;80.72;101977.31;5069475;28;20118;-66
2022/07/04 06:08:09;;;;;;;9.75;3.97;;;;;;;16.13;79.85;101981.88;5069389;28;20033;-66
2022/07/04 06:10:34;;;;;;;10.80;4.80;;;;;;;16.19;79.05;101972.16;5069177;28;20467;-66
2022/07/04 06:13:00;;;;;;;7.72;3.65;;;;;;;16.12;78.70;101976.72;5069234;28;20046;-66
2022/07/04 06:15:25;;;;;;;9.30;4.55;;;;;;;15.96;79.34;101981.47;5069091;28;20035;-66
2022/07/04 06:17:51;;;;;;;7.43;3.97;;;;;;;15.79;79.73;101982.88;5069257;28;20450;-66
2022/07/04 06:20:17;;;;;;;8.50;4.28;;;;;;;15.64;80.24;101985.72;5069467;28;20423;-66
2022/07/04 06:22:48;;;;;;;10.32;5.18;;;;;;;15.47;81.58;101981.72;5071033;28;20035;-66
2022/07/04 06:25:16;;;;;;;8.55;5.03;;;;;;;15.40;81.63;101980.84;5073059;28;20028;-66
2022/07/04 06:27:46;;;;;;;10.95;5.60;;;;;;;15.31;82.95;101974.84;5072957;28;20043;-66
2022/07/04 06:30:12;;;;;;;13.13;5.72;;;;;;;15.32;82.97;101977.31;5073103;28;20393;-66
2022/07/04 06:32:57;;;;;;;11.07;5.07;;;;;;;15.37;82.80;101976.72;5072970;28;20117;-66
2022/07/04 06:38:11;;;;;;;10.23;4.70;;;;;;;15.48;83.05;101967.22;5072683;28;20060;-66
2022/07/04 06:40:38;;;;;;;7.47;4.72;;;;;;;15.47;83.84;101957.53;5071694;28;20036;-65
2022/07/04 06:43:04;;;;;;;9.23;5.03;;;;;;;15.67;83.96;101981.78;5072865;28;20058;-65
2022/07/04 06:45:29;;;;;;;10.02;5.28;;;;;;;15.79;85.04;101977.50;5072918;28;20094;-66
2022/07/04 06:47:55;;;;;;;10.93;4.50;;;;;;;15.86;83.46;101974.84;5072943;28;20032;-66
2022/07/04 06:50:20;;;;;;;8.23;5.18;;;;;;;16.04;82.97;101983.13;5072873;28;20036;-65
2022/07/04 06:52:46;;;;;;;12.38;4.65;;;;;;;16.19;83.54;101974.84;5072715;28;20021;-65
2022/07/04 06:55:12;;;;;;;6.32;3.53;;;;;;;16.39;81.54;101978.38;5072803;28;20028;-66
2022/07/04 06:57:37;;;;;;;5.15;3.15;;;;;;;16.52;79.01;101980.25;5071505;28;20415;-66
2022/07/04 07:00:08;;;;;;;10.07;4.60;;;;;;;16.65;77.87;101984.78;5072675;28;20040;-66
2022/07/04 07:02:34;;;;;;;6.93;3.60;;;;;;;16.70;77.76;101992.25;5072564;28;20499;-66
2022/07/04 07:05:00;;;;;;;12.10;4.22;;;;;;;16.72;78.07;101979.41;5072614;28;20135;-66
2022/07/04 07:07:27;;;;;;;6.78;3.33;;;;;;;16.76;77.51;101981.44;5072408;28;20103;-65
2022/07/04 07:09:52;;;;;;;7.35;3.75;;;;;;;16.75;76.70;101984.38;5072535;28;20086;-66
2022/07/04 07:12:18;;;;;;;8.77;3.60;;;;;;;16.68;77.05;101970.06;5072351;28;20032;-66
2022/07/04 07:14:43;;;;;;;5.97;3.63;;;;;;;16.73;77.62;101976.47;5072366;28;20039;-66
2022/07/04 07:17:08;;;;;;;6.75;3.47;;;;;;;16.79;76.92;101974.84;5072405;28;20387;-66
2022/07/04 07:19:34;;;;;;;5.90;3.20;;;;;;;16.86;77.88;101959.50;5072265;28;20063;-66
2022/07/04 07:21:59;;;;;;;6.15;3.97;;;;;;;17.07;80.10;101971.88;5072197;28;20021;-66
2022/07/04 07:24:25;;;;;;;7.43;4.15;;;;;;;17.21;77.38;101964.56;5072075;28;20028;-66
2022/07/04 07:26:51;;;;;;;10.82;3.65;;;;;;;17.30;76.82;101960.59;5071756;28;20036;-66
2022/07/04 07:29:17;;;;;;;9.13;4.00;;;;;;;17.29;74.86;101962.47;5071945;28;20059;-66
2022/07/04 07:31:42;;;;;;;9.00;4.18;;;;;;;17.32;76.08;101969.31;5071838;28;20036;-65
2022/07/04 07:34:08;;;;;;;6.97;4.00;;;;;;;17.42;77.25;101971.53;5071557;28;20028;-66
2022/07/04 07:36:33;;;;;;;6.50;4.05;;;;;;;17.52;76.01;101969.19;5071921;28;20036;-66
2022/07/04 07:38:58;;;;;;;5.85;3.60;;;;;;;17.65;75.15;101979.09;5071976;28;20060;-67
2022/07/04 07:41:24;;;;;;;6.72;3.55;;;;;;;17.70;74.92;101981.97;5071850;28;20364;-67
2022/07/04 07:43:49;;;;;;;9.18;4.35;;;;;;;17.76;75.48;101983.78;5071916;28;20035;-67
2022/07/04 07:46:14;;;;;;;8.52;4.30;;;;;;;17.79;74.85;101982.53;5071698;28;20024;-67
2022/07/04 07:48:40;;;;;;;7.15;3.42;;;;;;;17.81;75.00;101977.78;5071727;28;20032;-66
2022/07/04 07:51:05;;;;;;;6.68;3.67;;;;;;;17.75;73.67;101969.47;5071421;28;20025;-67
2022/07/04 07:53:30;;;;;;;10.93;4.55;;;;;;;17.83;74.29;101971.13;5071602;28;20078;-66
2022/07/04 07:55:56;;;;;;;6.82;4.25;;;;;;;17.91;74.08;101964.63;5071721;28;20037;-67
2022/07/04 07:58:21;;;;;;;6.95;3.83;;;;;;;18.00;75.90;101957.09;5071565;28;20532;-66
2022/07/04 08:00:47;;;;;;;9.20;3.60;;;;;;;18.06;73.19;101946.25;5071675;28;20440;-67
2022/07/04 08:05:56;;;;;;;5.97;3.08;;;;;;;18.22;69.86;101947.59;5071731;28;20490;-70
2022/07/04 08:08:23;;;;;;;5.85;2.53;;;;;;;18.37;69.68;101948.06;5071405;28;20025;-65
2022/07/04 08:10:50;;;;;;;7.07;3.08;;;;;;;18.96;70.63;101951.22;5071297;28;20035;-71
2022/07/04 08:13:16;;;;;;;3.58;2.55;;;;;;;20.30;66.32;101955.63;5071301;28;20027;-70
2022/07/04 08:15:41;;;;;;;7.28;2.60;;;;;;;22.27;57.10;101944.66;5071279;28;20464;-69
2022/07/04 08:18:06;;;;;;;9.38;2.85;;;;;;;23.96;53.91;101946.69;5071172;28;20494;-69
2022/07/04 08:20:32;;;;;;;5.97;2.95;;;;;;;25.47;47.08;101951.66;5071222;28;20524;-69
2022/07/04 08:22:57;;;;;;;10.10;2.38;;;;;;;26.08;44.77;101945.44;5071195;28;20032;-69
2022/07/04 08:25:23;;;;;;;6.32;2.30;;;;;;;26.74;44.14;101953.53;5071086;28;20040;-70
2022/07/04 08:27:48;;;;;;;8.13;2.85;;;;;;;27.60;42.59;101962.44;5071032;28;20067;-69
2022/07/04 08:30:14;;;;;;;7.35;2.10;;;;;;;28.09;40.09;101957.97;5070787;28;20052;-69
2022/07/04 08:32:39;;;;;;;11.07;2.92;;;;;;;28.71;39.26;101961.72;5070870;28;20044;-70
2022/07/04 08:35:05;;;;;;;5.72;2.22;;;;;;;29.31;38.38;101963.22;5069610;28;20033;-70
2022/07/04 08:37:31;;;;;;;4.32;2.15;;;;;;;29.92;35.94;101960.38;5070891;28;20032;-66
2022/07/04 08:39:57;;;;;;;2.83;2.20;;;;;;;29.88;34.64;101970.31;5070872;28;20039;-66
2022/07/04 08:42:23;;;;;;;2.97;2.00;;;;;;;29.69;35.89;101953.84;5070734;28;20537;-67
2022/07/04 08:44:54;;;;;;;5.53;2.65;;;;;;;29.91;36.53;101960.66;5069848;28;20055;-66
2022/07/04 08:47:23;;;;;;;5.05;1.80;;;;;;;30.59;35.48;101959.16;5070626;28;20029;-66
2022/07/04 08:49:55;;;;;;;4.35;2.08;;;;;;;30.56;33.61;101968.84;5071072;28;20043;-66
2022/07/04 08:52:35;;;;;;;1.90;1.50;;;;;;;30.51;35.48;101968.16;5070243;28;20025;-66
2022/07/04 08:58:30;;;;;;;6.07;1.60;;;;;;;30.05;33.07;101975.28;5070982;28;20048;-66
2022/07/04 09:00:39;;;;;;;1.95;1.70;;;;;;;30.14;32.79;101967.94;5072310;28;20936;-66
2022/07/04 09:03:05;;;;;;;6.35;1.65;;;;;;;30.05;32.65;101971.69;5070276;28;20104;-66
2022/07/04 09:05:32;;;;;;;4.95;2.20;;;;;;;30.14;32.79;101976.22;5070136;28;20040;-66
2022/07/04 09:07:58;;;;;;;6.25;1.85;;;;;;;29.64;33.36;101981.44;5070100;28;20029;-66
2022/07/04 09:10:24;;;;;;;4.32;1.50;;;;;;;28.28;36.45;101969.03;5070023;28;20043;-66
2022/07/04 09:12:50;;;;;;;2.25;1.45;;;;;;;26.59;40.36;101970.81;5069887;28;20028;-66
2022/07/04 09:15:17;;;;;;;6.30;1.70;;;;;;;25.33;43.75;101973.16;5069894;28;20046;-66
2022/07/04 09:17:42;;;;;;;2.05;1.33;;;;;;;24.51;45.56;101964.59;5070020;28;20563;-66
2022/07/04 09:20:15;;;;;;;2.95;1.40;;;;;;;23.96;46.73;101972.03;5070014;28;20115;-66
2022/07/04 09:22:41;;;;;;;7.43;2.70;;;;;;;23.44;49.68;101978.03;5069652;28;20056;-66
2022/07/04 09:25:07;;;;;;;2.08;1.60;;;;;;;23.02;48.96;101970.47;5069868;28;20058;-66
2022/07/04 09:27:34;;;;;;;5.05;2.30;;;;;;;22.71;49.57;101975.47;5069548;28;20119;-66
2022/07/04 09:30:00;;;;;;;2.80;2.22;;;;;;;22.56;52.21;101968.97;5069603;28;20059;-66
2022/07/04 09:32:51;;;;;;;5.68;1.95;;;;;;;22.54;52.08;101971.97;5069652;28;20494;-66
2022/07/04 09:35:20;;;;;;;;;;;;;;;22.50;52.24;101974.34;5067259;28;20082;-66
2022/07/04 09:37:51;;;;;;;5.20;1.85;;;;;;;22.30;54.30;101969.44;5069659;28;19915;-66
2022/07/04 09:40:33;;;;;;;7.57;2.40;;;;;;;22.23;52.58;101976.94;5069562;28;20020;-65
2022/07/04 09:43:00;;;;;;;4.53;2.10;;;;;;;22.15;51.50;101974.59;5069710;28;20029;-66
2022/07/04 09:45:27;;;;;;;4.60;1.88;;;;;;;22.23;54.50;101968.78;5069415;28;20544;-66
2022/07/04 09:47:59;;;;;;;4.28;1.80;;;;;;;22.37;54.80;101971.16;5069609;28;20028;-66
2022/07/04 09:50:28;;;;;;;4.75;2.08;;;;;;;22.32;51.78;101966.44;5069334;28;20111;-65
2022/07/04 09:53:02;;;;;;;6.80;3.03;;;;;;;22.13;52.72;101965.84;5069325;28;20032;-65
2022/07/04 09:55:37;;;;;;;4.63;2.55;;;;;;;22.13;53.67;101952.28;5069504;28;20028;-65
2022/07/04 09:58:05;;;;;;;4.82;2.00;;;;;;;22.27;52.57;101964.50;5069451;28;20037;-65
2022/07/04 10:00:35;;;;;;;5.35;2.67;;;;;;;22.26;53.07;101962.00;5069375;28;20051;-65
2022/07/04 10:03:26;;;;;;;6.47;1.77;;;;;;;22.39;55.84;101961.69;5069459;28;20048;-66
2022/07/04 10:06:05;;;;;;;5.77;2.30;;;;;;;22.46;53.61;101964.25;5069186;28;20020;-66
2022/07/04 10:08:31;;;;;;;5.38;1.90;;;;;;;22.43;52.32;101954.69;5069235;28;20116;-66
2022/07/04 10:10:58;;;;;;;4.90;2.70;;;;;;;22.37;51.09;101954.84;5069337;28;20067;-66
2022/07/04 10:13:23;;;;;;;6.30;2.40;;;;;;;22.38;52.44;101957.31;5069305;28;20028;-65
2022/07/04 10:15:49;;;;;;;2.97;1.80;;;;;;;22.42;52.70;101953.03;5069345;28;20399;-66
2022/07/04 10:18:18;;;;;;;2.20;1.42;;;;;;;22.52;51.99;101945.00;5069390;28;20464;-67
2022/07/04 10:20:44;;;;;;;8.23;3.80;;;;;;;22.57;52.27;101947.00;5068927;28;20060;-66
2022/07/04 10:23:10;;;;;;;3.90;1.90;;;;;;;22.70;52.79;101943.91;5069142;28;20157;-66
2022/07/04 10:25:36;;;;;;;6.35;2.40;;;;;;;22.74;51.07;101947.78;5069122;28;20470;-66
2022/07/04 10:28:02;;;;;;;4.40;1.88;;;;;;;22.68;51.47;101940.59;5068975;28;20910;-66
2022/07/04 10:30:34;;;;;;;4.65;2.28;;;;;;;22.60;51.99;101951.09;5068923;28;20189;-65
2022/07/04 10:33:03;;;;;;;3.00;1.85;;;;;;;22.49;50.60;101937.38;5069135;28;20044;-65
2022/07/04 10:35:49;;;;;;;2.72;1.92;;;;;;;22.63;51.79;101934.28;5069018;28;20028;-66
2022/07/04 10:38:16;;;;;;;5.07;1.90;;;;;;;22.79;50.45;101935.31;5069062;28;20035;-66
2022/07/04 10:40:43;;;;;;;2.97;1.80;;;;;;;22.84;50.53;101930.75;5068977;28;20024;-66
2022/07/04 10:43:30;;;;;;;2.58;2.17;;;;;;;23.03;51.17;101927.75;5069117;28;20487;-66
2022/07/04 10:46:10;;;;;;;5.57;1.80;;;;;;;23.18;53.65;101928.75;5068925;28;20047;-66
2022/07/04 10:48:35;;;;;;;2.80;1.95;;;;;;;23.43;51.46;101919.22;5068946;28;20029;-66
2022/07/04 10:51:05;;;;;;;4.30;2.22;;;;;;;23.55;52.11;101919.06;5067357;28;20041;-66
2022/07/04 10:53:33;;;;;;;4.68;2.45;;;;;;;23.62;49.90;101925.13;5068903;28;20139;-66
2022/07/04 10:56:20;;;;;;;8.98;2.17;;;;;;;23.92;50.92;101926.50;5068871;28;20032;-65
2022/07/04 10:58:45;;;;;;;5.28;2.25;;;;;;;23.65;47.69;101926.50;5069005;28;20387;-66
2022/07/04 11:01:15;;;;;;;11.57;2.40;;;;;;;22.96;47.64;101917.03;5068811;28;20028;-66
2022/07/04 11:03:52;;;;;;;4.18;1.98;;;;;;;22.64;50.47;101927.78;5067313;28;20040;-66
2022/07/04 11:06:33;;;;;;;2.92;2.08;;;;;;;22.43;50.49;101913.09;5068278;28;20029;-66
2022/07/04 11:09:17;;;;;;;6.70;2.05;;;;;;;22.40;52.27;101919.84;5071045;28;20069;-66
2022/07/04 11:11:59;;;;;;;4.45;2.00;;;;;;;22.44;52.14;101917.44;5071964;28;20033;-66
2022/07/04 11:14:43;;;;;;;2.25;1.75;;;;;;;22.43;52.88;101921.25;5072040;28;20047;-66
2022/07/04 11:17:18;;;;;;;7.70;2.20;;;;;;;22.42;52.24;101914.97;5071628;28;20028;-66
2022/07/04 11:19:44;;;;;;;6.20;1.63;;;;;;;22.54;53.44;101917.59;5071886;28;20071;-66
2022/07/04 11:22:10;;;;;;;7.60;2.55;;;;;;;22.52;53.28;101912.38;5071869;28;20056;-66
2022/07/04 11:24:38;;;;;;;4.55;2.78;;;;;;;22.41;54.78;101918.75;5071825;28;20036;-66
2022/07/04 11:27:06;;;;;;;7.40;3.30;;;;;;;22.28;55.20;101917.22;5072106;28;20127;-66
2022/07/04 11:29:31;;;;;;;6.75;3.40;;;;;;;22.04;54.60;101915.72;5071499;28;20060;-66
2022/07/04 11:31:57;;;;;;;5.07;3.45;;;;;;;21.80;56.08;101917.78;5072178;28;20131;-66
2022/07/04 11:34:23;;;;;;;15.38;3.75;;;;;;;21.59;57.13;101920.13;5071651;28;20067;-65
2022/07/04 11:36:50;;;;;;;8.50;4.72;;;;;;;21.39;57.58;101923.28;5071671;28;20349;-66
2022/07/04 11:39:20;;;;;;;10.23;4.80;;;;;;;21.35;57.52;101915.84;5071464;28;20033;-66